createdAt,value
2019-01-26T00:00:50.471Z,22.8
2019-01-26T00:02:50.361Z,22.9
2019-01-26T00:04:49.757Z,22.9
2019-01-26T00:06:49.840Z,21.9
2019-01-26T00:08:49.655Z,25.1
2019-01-26T00:10:49.570Z,25.1
2019-01-26T00:12:50.452Z,23.0
2019-01-26T00:14:50.409Z,22.3
2019-01-26T00:16:50.519Z,22.4
2019-01-26T00:18:50.396Z,21.9
2019-01-26T00:20:50.237Z,21.9
2019-01-26T00:22:50.048Z,21.0
2019-01-26T00:24:49.964Z,19.4
2019-01-26T00:26:50.042Z,20.7
2019-01-26T00:28:49.958Z,20.7
2019-01-26T00:30:49.841Z,21.3
2019-01-26T00:32:49.649Z,21.3
2019-01-26T00:34:49.911Z,20.8
2019-01-26T00:36:50.014Z,20.8
2019-01-26T00:38:49.940Z,19.6
2019-01-26T00:40:49.774Z,20.9
2019-01-26T00:42:49.652Z,20.9
2019-01-26T00:44:49.541Z,21.0
2019-01-26T00:46:49.634Z,21.2
2019-01-26T00:48:49.540Z,21.2
2019-01-26T00:50:50.319Z,20.2
2019-01-26T00:52:50.169Z,20.7
2019-01-26T00:54:50.053Z,21.3
2019-01-26T00:56:50.078Z,20.4
2019-01-26T00:58:49.906Z,20.4
2019-01-26T01:00:49.833Z,21.1
2019-01-26T01:02:49.697Z,21.5
2019-01-26T01:04:49.991Z,19.6
2019-01-26T01:06:50.114Z,21.1
2019-01-26T01:08:49.933Z,21.1
2019-01-26T01:10:49.790Z,21.0
2019-01-26T01:12:49.695Z,22.6
2019-01-26T01:14:49.644Z,22.6
2019-01-26T01:16:49.739Z,20.9
2019-01-26T01:18:49.739Z,20.9
2019-01-26T01:20:49.760Z,21.2
2019-01-26T01:22:49.782Z,21.2
2019-01-26T01:24:49.612Z,21.8
2019-01-26T01:26:49.757Z,21.8
2019-01-26T01:28:49.645Z,21.4
2019-01-26T01:30:49.567Z,21.4
2019-01-26T01:32:50.442Z,22.1
2019-01-26T01:34:49.590Z,22.9
2019-01-26T01:36:49.858Z,22.9
2019-01-26T01:38:49.747Z,22.8
2019-01-26T01:40:49.563Z,23.1
2019-01-26T01:42:50.405Z,23.1
2019-01-26T01:44:50.208Z,22.8
2019-01-26T01:46:50.219Z,21.6
2019-01-26T01:48:50.053Z,21.6
2019-01-26T01:50:49.911Z,22.9
2019-01-26T01:52:49.814Z,22.9
2019-01-26T01:54:49.793Z,22.2
2019-01-26T01:56:49.854Z,22.2
2019-01-26T01:58:49.710Z,18.0
2019-01-26T02:00:49.663Z,21.9
2019-01-26T02:02:49.548Z,21.9
2019-01-26T02:04:50.037Z,22.3
2019-01-26T02:06:50.138Z,22.3
2019-01-26T02:08:49.998Z,22.4
2019-01-26T02:10:49.884Z,20.0
2019-01-26T02:12:49.820Z,22.6
2019-01-26T02:14:49.709Z,23.8
2019-01-26T02:16:50.409Z,23.8
2019-01-26T02:18:50.373Z,24.7
2019-01-26T02:20:50.212Z,24.7
2019-01-26T02:22:50.248Z,24.7
2019-01-26T02:24:50.182Z,23.6
2019-01-26T02:26:50.339Z,23.9
2019-01-26T02:28:50.226Z,24.7
2019-01-26T02:30:50.141Z,23.6
2019-01-26T02:32:50.141Z,24.1
2019-01-26T02:34:50.320Z,24.1
2019-01-26T02:38:49.833Z,23.7
2019-01-26T02:40:49.694Z,22.8
2019-01-26T02:42:49.635Z,23.0
2019-01-26T02:44:49.596Z,23.0
2019-01-26T02:46:49.717Z,22.2
2019-01-26T02:48:49.544Z,23.5
2019-01-26T02:50:50.467Z,23.0
2019-01-26T02:52:50.330Z,23.7
2019-01-26T02:54:50.240Z,23.7
2019-01-26T02:56:50.290Z,23.8
2019-01-26T02:58:50.158Z,23.2
2019-01-26T03:00:50.016Z,23.2
2019-01-26T03:02:49.883Z,21.8
2019-01-26T03:04:50.075Z,21.8
2019-01-26T03:06:50.184Z,22.2
2019-01-26T03:08:49.674Z,23.7
2019-01-26T03:10:49.567Z,21.9
2019-01-26T03:12:50.382Z,21.9
2019-01-26T03:14:50.304Z,21.9
2019-01-26T03:16:50.395Z,23.0
2019-01-26T03:18:50.307Z,23.5
2019-01-26T03:20:50.159Z,22.4
2019-01-26T03:22:50.009Z,22.4
2019-01-26T03:24:49.843Z,22.9
2019-01-26T03:26:50.001Z,21.4
2019-01-26T03:28:49.813Z,21.2
2019-01-26T03:30:49.769Z,22.3
2019-01-26T03:32:49.667Z,22.3
2019-01-26T03:34:50.004Z,23.2
2019-01-26T03:36:50.127Z,22.7
2019-01-26T03:38:49.998Z,22.7
2019-01-26T03:40:49.893Z,21.8
2019-01-26T03:42:49.814Z,21.8
2019-01-26T03:44:49.699Z,21.9
2019-01-26T03:46:49.846Z,24.3
2019-01-26T03:48:49.670Z,21.3
2019-01-26T03:50:49.563Z,22.0
2019-01-26T03:52:50.484Z,22.0
2019-01-26T03:54:50.319Z,20.1
2019-01-26T03:56:50.395Z,19.8
2019-01-26T03:58:50.177Z,19.7
2019-01-26T04:00:50.094Z,20.5
2019-01-26T04:02:49.919Z,20.5
2019-01-26T04:04:50.181Z,23.1
2019-01-26T04:06:50.311Z,21.1
2019-01-26T04:08:50.118Z,20.8
2019-01-26T04:10:49.921Z,20.5
2019-01-26T04:12:49.740Z,20.5
2019-01-26T04:14:49.729Z,20.5
2019-01-26T04:16:49.843Z,20.6
2019-01-26T04:18:49.691Z,20.6
2019-01-26T04:20:49.548Z,20.6
2019-01-26T04:22:50.480Z,20.4
2019-01-26T04:24:50.488Z,20.6
2019-01-26T04:26:49.556Z,20.6
2019-01-26T04:28:50.358Z,19.3
2019-01-26T04:30:50.259Z,19.3
2019-01-26T04:32:50.161Z,19.8
2019-01-26T04:34:50.283Z,20.4
2019-01-26T04:36:50.371Z,20.4
2019-01-26T04:38:50.273Z,20.4
2019-01-26T04:40:50.147Z,20.4
2019-01-26T04:42:50.008Z,19.8
2019-01-26T04:44:49.918Z,19.1
2019-01-26T04:46:49.953Z,19.0
2019-01-26T04:48:49.775Z,20.9
2019-01-26T04:50:49.598Z,20.9
2019-01-26T04:52:50.503Z,18.8
2019-01-26T04:54:50.399Z,18.8
2019-01-26T04:56:49.529Z,19.4
2019-01-26T04:58:50.394Z,19.2
2019-01-26T05:00:50.253Z,19.2
2019-01-26T05:02:50.061Z,18.9
2019-01-26T05:04:50.327Z,19.0
2019-01-26T05:06:50.414Z,19.9
2019-01-26T05:08:50.304Z,19.9
2019-01-26T05:10:50.110Z,19.6
2019-01-26T05:12:50.068Z,21.9
2019-01-26T05:14:50.046Z,20.2
2019-01-26T05:16:50.032Z,19.4
2019-01-26T05:18:49.853Z,19.4
2019-01-26T05:20:49.852Z,20.0
2019-01-26T05:22:49.760Z,20.0
2019-01-26T05:24:49.680Z,19.9
2019-01-26T05:26:50.374Z,20.1
2019-01-26T05:28:50.240Z,20.1
2019-01-26T05:30:50.171Z,19.5
2019-01-26T05:32:50.085Z,17.9
2019-01-26T05:34:50.248Z,17.0
2019-01-26T05:36:50.289Z,17.0
2019-01-26T05:38:50.114Z,16.7
2019-01-26T05:40:50.012Z,16.1
2019-01-26T05:42:49.818Z,16.4
2019-01-26T05:44:49.884Z,15.6
2019-01-26T05:46:49.956Z,15.6
2019-01-26T05:48:49.762Z,15.3
2019-01-26T05:50:49.559Z,15.1
2019-01-26T05:52:49.589Z,15.0
2019-01-26T05:54:50.475Z,15.0
2019-01-26T05:56:49.635Z,14.9
2019-01-26T05:58:50.488Z,14.7
2019-01-26T06:00:50.343Z,14.7
2019-01-26T06:02:50.269Z,14.8
2019-01-26T06:04:49.662Z,14.8
2019-01-26T06:06:49.967Z,15.3
2019-01-26T06:08:50.037Z,15.1
2019-01-26T06:10:50.091Z,16.1
2019-01-26T06:12:50.164Z,16.1
2019-01-26T06:14:50.184Z,17.3
2019-01-26T06:16:50.499Z,17.3
2019-01-26T06:18:49.567Z,17.8
2019-01-26T06:20:49.676Z,18.5
2019-01-26T06:22:49.683Z,18.0
2019-01-26T06:24:49.793Z,18.0
2019-01-26T06:26:49.977Z,18.1
2019-01-26T06:28:49.986Z,18.3
2019-01-26T06:30:50.031Z,19.1
2019-01-26T06:32:50.032Z,18.7
2019-01-26T06:34:50.453Z,18.7
2019-01-26T06:36:50.449Z,19.4
2019-01-26T06:38:50.471Z,18.8
2019-01-26T06:40:50.507Z,18.8
2019-01-26T06:42:49.527Z,19.5
2019-01-26T06:44:49.567Z,19.5
2019-01-26T06:46:49.812Z,18.9
2019-01-26T06:48:49.903Z,16.8
2019-01-26T06:50:49.955Z,17.9
2019-01-26T06:52:49.999Z,17.9
2019-01-26T06:54:49.935Z,17.4
2019-01-26T06:56:50.159Z,16.7
2019-01-26T06:58:50.107Z,18.1
2019-01-26T07:00:50.170Z,18.1
2019-01-26T07:02:50.251Z,17.3
2019-01-26T07:04:49.552Z,17.3
2019-01-26T07:06:49.831Z,17.6
2019-01-26T07:08:49.877Z,16.7
2019-01-26T07:10:49.875Z,17.2
2019-01-26T07:12:49.924Z,17.2
2019-01-26T07:14:49.920Z,16.6
2019-01-26T07:16:50.189Z,17.4
2019-01-26T07:18:50.262Z,17.4
2019-01-26T07:20:50.364Z,17.3
2019-01-26T07:22:50.435Z,17.2
2019-01-26T07:24:50.391Z,17.2
2019-01-26T07:26:49.633Z,18.0
2019-01-26T07:28:49.659Z,16.9
2019-01-26T07:30:49.884Z,17.3
2019-01-26T07:32:49.949Z,17.3
2019-01-26T07:34:50.264Z,16.9
2019-01-26T07:36:49.532Z,17.4
2019-01-26T07:38:49.571Z,16.9
2019-01-26T07:40:49.562Z,16.9
2019-01-26T07:42:49.705Z,17.6
2019-01-26T07:44:49.822Z,17.5
2019-01-26T07:46:50.025Z,18.4
2019-01-26T07:48:50.083Z,18.4
2019-01-26T07:50:50.133Z,18.4
2019-01-26T07:52:50.130Z,18.4
2019-01-26T07:54:50.155Z,17.6
2019-01-26T07:56:50.483Z,17.6
2019-01-26T07:58:50.479Z,18.0
2019-01-26T08:00:50.537Z,18.0
2019-01-26T08:02:49.564Z,17.6
2019-01-26T08:04:49.961Z,17.9
2019-01-26T08:06:50.166Z,17.9
2019-01-26T08:08:50.212Z,17.9
2019-01-26T08:10:50.271Z,17.8
2019-01-26T08:12:50.303Z,19.7
2019-01-26T08:14:50.382Z,18.8
2019-01-26T08:16:49.707Z,20.3
2019-01-26T08:18:49.777Z,20.3
2019-01-26T08:20:49.763Z,19.7
2019-01-26T08:22:49.807Z,18.5
2019-01-26T08:24:49.831Z,19.9
2019-01-26T08:26:50.017Z,20.3
2019-01-26T08:28:50.020Z,20.3
2019-01-26T08:30:50.052Z,19.9
2019-01-26T08:32:50.111Z,21.1
2019-01-26T08:34:50.391Z,20.0
2019-01-26T08:36:49.536Z,19.9
2019-01-26T08:38:49.617Z,19.9
2019-01-26T08:40:49.662Z,20.6
2019-01-26T08:42:49.685Z,19.5
2019-01-26T08:44:49.794Z,19.9
2019-01-26T08:46:50.048Z,20.4
2019-01-26T08:48:50.128Z,20.4
2019-01-26T08:50:50.149Z,19.3
2019-01-26T08:52:50.175Z,18.9
2019-01-26T08:54:50.176Z,18.9
2019-01-26T08:56:50.376Z,19.1
2019-01-26T08:58:50.408Z,19.1
2019-01-26T09:00:50.448Z,17.5
2019-01-26T09:02:49.623Z,17.6
2019-01-26T09:04:49.986Z,18.4
2019-01-26T09:06:50.217Z,17.7
2019-01-26T09:08:50.268Z,17.7
2019-01-26T09:10:50.286Z,17.1
2019-01-26T09:12:50.466Z,15.5
2019-01-26T09:14:49.542Z,15.4
2019-01-26T09:16:49.779Z,15.4
2019-01-26T09:18:49.776Z,15.4
2019-01-26T09:20:49.911Z,16.4
2019-01-26T09:22:49.915Z,16.4
2019-01-26T09:24:49.890Z,14.9
2019-01-26T09:26:50.089Z,14.9
2019-01-26T09:28:50.097Z,14.1
2019-01-26T09:30:50.152Z,15.1
2019-01-26T09:32:50.184Z,12.8
2019-01-26T09:34:50.509Z,13.2
2019-01-26T09:36:49.764Z,13.2
2019-01-26T09:38:49.778Z,13.8
2019-01-26T09:40:49.777Z,13.2
2019-01-26T09:42:49.772Z,13.8
2019-01-26T09:44:49.732Z,13.8
2019-01-26T09:46:50.057Z,13.4
2019-01-26T09:48:50.033Z,12.9
2019-01-26T09:50:50.034Z,12.7
2019-01-26T09:52:50.150Z,12.4
2019-01-26T09:54:50.167Z,12.2
2019-01-26T09:56:50.484Z,12.2
2019-01-26T09:58:50.470Z,12.0
2019-01-26T10:00:49.539Z,18.4
2019-01-26T10:02:49.647Z,18.4
2019-01-26T10:04:50.003Z,18.4
2019-01-26T10:06:50.177Z,11.9
2019-01-26T10:08:50.226Z,12.1
2019-01-26T10:10:50.210Z,11.7
2019-01-26T10:12:50.363Z,11.1
2019-01-26T10:14:50.373Z,11.1
2019-01-26T10:16:49.614Z,11.5
2019-01-26T10:18:54.100Z,11.4
2019-01-26T10:20:50.116Z,11.4
2019-01-26T10:22:50.147Z,10.5
2019-01-26T10:24:50.130Z,10.5
2019-01-26T10:26:50.393Z,11.0
2019-01-26T10:28:50.438Z,10.6
2019-01-26T10:30:50.377Z,10.4
2019-01-26T10:32:50.428Z,10.4
2019-01-26T10:34:50.044Z,10.4
2019-01-26T10:36:50.253Z,9.6
2019-01-26T10:38:50.293Z,10.1
2019-01-26T10:40:50.349Z,10.1
2019-01-26T10:42:50.375Z,10.4
2019-01-26T10:44:50.421Z,10.4
2019-01-26T10:46:49.653Z,10.5
2019-01-26T10:48:49.710Z,10.5
2019-01-26T10:50:49.817Z,10.9
2019-01-26T10:52:49.965Z,11.2
2019-01-26T10:54:49.992Z,11.2
2019-01-26T10:56:50.257Z,11.1
2019-01-26T10:58:50.284Z,11.3
2019-01-26T11:00:50.300Z,10.9
2019-01-26T11:02:49.532Z,10.9
2019-01-26T11:04:49.828Z,11.5
2019-01-26T11:06:50.129Z,11.5
2019-01-26T11:08:50.126Z,12.0
2019-01-26T11:10:50.164Z,12.6
2019-01-26T11:12:50.530Z,12.6
2019-01-26T11:14:49.599Z,12.5
2019-01-26T11:16:49.823Z,11.9
2019-01-26T11:18:49.869Z,12.1
2019-01-26T11:20:50.038Z,12.1
2019-01-26T11:22:50.147Z,11.4
2019-01-26T11:24:50.207Z,12.3
2019-01-26T11:26:50.380Z,12.4
2019-01-26T11:28:50.377Z,12.1
2019-01-26T11:30:50.395Z,12.1
2019-01-26T11:32:50.457Z,12.1
2019-01-26T11:34:49.952Z,12.2
2019-01-26T11:36:50.074Z,11.7
2019-01-26T11:38:50.071Z,12.0
2019-01-26T11:40:50.179Z,12.0
2019-01-26T11:42:50.162Z,12.1
2019-01-26T11:44:50.262Z,12.0
2019-01-26T11:46:49.606Z,12.1
2019-01-26T11:48:49.647Z,11.9
2019-01-26T11:50:49.668Z,11.9
2019-01-26T11:52:49.782Z,11.7
2019-01-26T11:54:49.734Z,11.2
2019-01-26T11:56:49.971Z,11.3
2019-01-26T11:58:50.022Z,11.2
2019-01-26T12:00:50.032Z,11.8
2019-01-26T12:02:49.952Z,11.8
2019-01-26T12:04:50.200Z,10.9
2019-01-26T12:06:50.484Z,9.9
2019-01-26T12:08:50.496Z,9.9
2019-01-26T12:10:49.554Z,11.4
2019-01-26T12:12:49.554Z,11.0
2019-01-26T12:14:49.651Z,10.2
2019-01-26T12:16:49.802Z,9.7
2019-01-26T12:18:49.845Z,9.7
2019-01-26T12:20:49.838Z,10.2
2019-01-26T12:22:49.813Z,9.8
2019-01-26T12:24:49.844Z,10.2
2019-01-26T12:26:49.974Z,12.9
2019-01-26T12:28:50.097Z,9.3
2019-01-26T12:30:50.067Z,9.3
2019-01-26T12:32:50.125Z,10.0
2019-01-26T12:34:49.537Z,9.4
2019-01-26T12:36:49.904Z,9.4
2019-01-26T12:38:49.917Z,10.0
2019-01-26T12:40:50.018Z,9.8
2019-01-26T12:42:50.125Z,9.1
2019-01-26T12:44:50.223Z,9.5
2019-01-26T12:46:50.360Z,9.5
2019-01-26T12:48:50.365Z,9.6
2019-01-26T12:50:50.437Z,9.1
2019-01-26T12:52:49.535Z,9.4
2019-01-26T12:54:49.589Z,9.6
2019-01-26T12:56:49.983Z,9.3
2019-01-26T12:58:50.016Z,9.3
2019-01-26T13:00:50.032Z,8.9
2019-01-26T13:02:50.081Z,9.1
2019-01-26T13:04:50.466Z,9.0
2019-01-26T13:06:49.739Z,9.0
2019-01-26T13:08:49.783Z,8.2
2019-01-26T13:10:49.803Z,8.3
2019-01-26T13:12:49.826Z,8.1
2019-01-26T13:14:49.805Z,8.5
2019-01-26T13:16:49.988Z,7.7
2019-01-26T13:18:50.025Z,7.7
2019-01-26T13:20:50.100Z,8.2
2019-01-26T13:22:50.180Z,7.8
2019-01-26T13:24:50.164Z,7.9
2019-01-26T13:26:50.420Z,7.9
2019-01-26T13:28:50.522Z,7.9
2019-01-26T13:30:49.575Z,7.8
2019-01-26T13:32:49.709Z,7.4
2019-01-26T13:34:50.040Z,7.2
2019-01-26T13:36:50.268Z,6.4
2019-01-26T13:38:50.222Z,6.4
2019-01-26T13:40:50.354Z,6.9
2019-01-26T13:42:50.398Z,7.0
2019-01-26T13:44:50.464Z,6.5
2019-01-26T13:46:49.721Z,6.5
2019-01-26T13:48:49.812Z,6.8
2019-01-26T13:50:49.822Z,7.0
2019-01-26T13:52:49.964Z,6.8
2019-01-26T13:54:50.023Z,6.9
2019-01-26T13:56:50.199Z,6.9
2019-01-26T13:58:50.327Z,7.3
2019-01-26T14:00:50.294Z,7.0
2019-01-26T14:02:50.333Z,6.6
2019-01-26T14:04:49.711Z,6.4
2019-01-26T14:06:50.048Z,6.4
2019-01-26T14:08:50.062Z,6.5
2019-01-26T14:10:50.094Z,7.0
2019-01-26T14:12:50.102Z,6.8
2019-01-26T14:14:50.073Z,6.8
2019-01-26T14:16:50.315Z,6.8
2019-01-26T14:18:50.333Z,6.7
2019-01-26T14:20:50.375Z,6.8
2019-01-26T14:22:50.532Z,7.0
2019-01-26T14:24:49.517Z,7.0
2019-01-26T14:26:50.113Z,6.3
2019-01-26T14:28:50.140Z,6.2
2019-01-26T14:30:50.117Z,6.5
2019-01-26T14:32:52.899Z,7.1
2019-01-26T14:34:50.306Z,7.1
2019-01-26T14:36:49.713Z,7.4
2019-01-26T14:38:49.705Z,6.7
2019-01-26T14:40:49.706Z,7.6
2019-01-26T14:42:54.735Z,7.0
2019-01-26T14:44:49.838Z,7.0
2019-01-26T14:46:50.049Z,7.5
2019-01-26T14:48:50.169Z,7.4
2019-01-26T14:50:50.195Z,7.1
2019-01-26T14:52:50.184Z,7.2
2019-01-26T14:54:50.138Z,7.2
2019-01-26T14:56:50.396Z,7.2
2019-01-26T14:58:49.549Z,7.8
2019-01-26T15:00:49.619Z,8.2
2019-01-26T15:02:49.694Z,8.2
2019-01-26T15:04:50.154Z,8.1
2019-01-26T15:06:50.456Z,7.6
2019-01-26T15:08:50.493Z,8.0
2019-01-26T15:10:49.560Z,7.5
2019-01-26T15:12:49.543Z,7.5
2019-01-26T15:14:49.594Z,7.7
2019-01-26T15:16:49.869Z,8.1
2019-01-26T15:18:49.872Z,7.6
2019-01-26T15:20:49.888Z,8.5
2019-01-26T15:22:49.934Z,8.5
2019-01-26T15:24:49.976Z,7.9
2019-01-26T15:26:50.239Z,8.1
2019-01-26T15:28:50.231Z,8.3
2019-01-26T15:30:50.272Z,7.9
2019-01-26T15:32:50.253Z,7.9
2019-01-26T15:34:49.573Z,7.9
2019-01-26T15:36:49.873Z,7.8
2019-01-26T15:38:49.841Z,7.7
2019-01-26T15:40:49.856Z,7.9
2019-01-26T15:42:49.910Z,7.9
2019-01-26T15:44:49.959Z,7.8
2019-01-26T15:46:50.116Z,7.8
2019-01-26T15:48:50.101Z,7.2
2019-01-26T15:50:50.136Z,7.4
2019-01-26T15:52:50.025Z,7.4
2019-01-26T15:54:50.026Z,7.4
2019-01-26T15:56:50.307Z,7.3
2019-01-26T15:58:50.342Z,7.3
2019-01-26T16:00:50.292Z,7.4
2019-01-26T16:02:50.353Z,7.4
2019-01-26T16:04:49.859Z,7.1
2019-01-26T16:06:50.172Z,7.1
2019-01-26T16:08:50.288Z,7.3
2019-01-26T16:10:50.302Z,7.3
2019-01-26T16:12:50.375Z,7.4
2019-01-26T16:14:50.401Z,7.4
2019-01-26T16:16:49.712Z,7.4
2019-01-26T16:18:49.703Z,7.4
2019-01-26T16:20:49.806Z,7.4
2019-01-26T16:22:49.812Z,7.2
2019-01-26T16:24:49.864Z,7.2
2019-01-26T16:26:50.071Z,7.7
2019-01-26T16:28:50.116Z,7.2
2019-01-26T16:30:50.071Z,7.2
2019-01-26T16:32:50.137Z,7.7
2019-01-26T16:34:49.680Z,7.9
2019-01-26T16:36:49.939Z,7.6
2019-01-26T16:38:49.963Z,7.8
2019-01-26T16:40:49.973Z,7.8
2019-01-26T16:42:50.000Z,8.4
2019-01-26T16:44:50.097Z,8.1
2019-01-26T16:46:50.265Z,8.1
2019-01-26T16:48:50.270Z,8.5
2019-01-26T16:50:50.303Z,8.5
2019-01-26T16:52:50.442Z,8.4
2019-01-26T16:54:50.381Z,9.7
2019-01-26T16:56:49.672Z,9.7
2019-01-26T16:58:49.689Z,8.6
2019-01-26T17:00:49.867Z,9.4
2019-01-26T17:02:49.928Z,10.7
2019-01-26T17:04:50.158Z,9.5
2019-01-26T17:06:50.390Z,9.4
2019-01-26T17:08:50.382Z,9.4
2019-01-26T17:10:50.398Z,9.1
2019-01-26T17:12:50.404Z,9.7
2019-01-26T17:14:50.415Z,8.8
2019-01-26T17:16:49.678Z,8.8
2019-01-26T17:18:49.835Z,9.6
2019-01-26T17:20:49.835Z,9.5
2019-01-26T17:22:49.969Z,9.9
2019-01-26T17:24:49.966Z,9.4
2019-01-26T17:26:53.096Z,9.4
2019-01-26T17:28:50.481Z,9.3
2019-01-26T17:30:50.540Z,9.3
2019-01-26T17:32:49.535Z,9.3
2019-01-26T17:34:49.935Z,9.4
2019-01-26T17:36:50.179Z,9.4
2019-01-26T17:38:50.169Z,9.8
2019-01-26T17:40:54.789Z,9.8
2019-01-26T17:42:49.953Z,9.7
2019-01-26T17:44:49.998Z,9.7
2019-01-26T17:46:50.229Z,9.7
2019-01-26T17:48:50.325Z,10.2
2019-01-26T17:50:50.339Z,9.5
2019-01-26T17:52:50.411Z,9.3
2019-01-26T17:54:50.419Z,9.3
2019-01-26T17:56:49.820Z,10.1
2019-01-26T17:58:49.776Z,10.4
2019-01-26T18:00:49.805Z,10.6
2019-01-26T18:02:49.867Z,10.6
2019-01-26T18:04:50.148Z,12.5
2019-01-26T18:06:50.290Z,12.5
2019-01-26T18:08:50.352Z,9.5
2019-01-26T18:10:50.366Z,9.3
2019-01-26T18:12:50.324Z,9.2
2019-01-26T18:14:50.348Z,9.2
2019-01-26T18:16:49.598Z,8.8
2019-01-26T18:18:49.721Z,8.7
2019-01-26T18:20:49.808Z,9.2
2019-01-26T18:22:49.899Z,10.2
2019-01-26T18:24:49.941Z,10.2
2019-01-26T18:26:50.978Z,9.7
2019-01-26T18:28:49.919Z,9.2
2019-01-26T18:30:49.940Z,9.6
2019-01-26T18:32:49.966Z,9.6
2019-01-26T18:34:50.369Z,9.5
2019-01-26T18:36:49.684Z,10.9
2019-01-26T18:38:49.683Z,9.9
2019-01-26T18:40:49.705Z,9.9
2019-01-26T18:42:49.690Z,9.9
2019-01-26T18:44:49.823Z,9.9
2019-01-26T18:46:49.977Z,9.9
2019-01-26T18:48:49.989Z,11.0
2019-01-26T18:50:56.575Z,11.7
2019-01-26T18:52:49.773Z,12.7
2019-01-26T18:54:49.794Z,12.7
2019-01-26T18:56:49.996Z,13.2
2019-01-26T18:58:50.024Z,13.1
2019-01-26T19:00:50.060Z,14.7
2019-01-26T19:02:50.087Z,14.7
2019-01-26T19:04:50.322Z,14.5
2019-01-26T19:06:49.620Z,15.0
2019-01-26T19:08:49.851Z,15.1
2019-01-26T19:10:49.807Z,15.1
2019-01-26T19:12:49.834Z,16.0
2019-01-26T19:14:49.889Z,15.5
2019-01-26T19:16:50.179Z,15.5
2019-01-26T19:18:50.262Z,15.9
2019-01-26T19:20:50.273Z,15.9
2019-01-26T19:22:50.250Z,16.8
2019-01-26T19:24:50.274Z,16.4
2019-01-26T19:26:50.491Z,16.7
2019-01-26T19:28:49.532Z,17.6
2019-01-26T19:30:49.642Z,17.6
2019-01-26T19:32:49.754Z,20.4
2019-01-26T19:34:50.018Z,19.1
2019-01-26T19:36:50.163Z,19.1
2019-01-26T19:38:50.158Z,19.2
2019-01-26T19:40:50.145Z,19.2
2019-01-26T19:42:50.170Z,20.0
2019-01-26T19:44:50.228Z,20.0
2019-01-26T19:46:50.361Z,20.5
2019-01-26T19:48:50.478Z,21.0
2019-01-26T19:50:50.474Z,21.0
2019-01-26T19:52:49.558Z,20.2
2019-01-26T19:54:49.597Z,20.2
2019-01-26T19:56:49.858Z,22.4
2019-01-26T19:58:49.864Z,21.7
2019-01-26T20:00:49.922Z,21.7
2019-01-26T20:02:49.991Z,21.2
2019-01-26T20:04:50.265Z,20.5
2019-01-26T20:06:49.601Z,20.8
2019-01-26T20:08:49.710Z,20.8
2019-01-26T20:10:49.720Z,21.0
2019-01-26T20:12:49.747Z,21.0
2019-01-26T20:14:49.710Z,22.2
2019-01-26T20:16:49.891Z,20.7
2019-01-26T20:18:50.640Z,19.8
2019-01-26T20:20:50.356Z,19.8
2019-01-26T20:22:49.566Z,20.1
2019-01-26T20:24:49.782Z,21.3
2019-01-26T20:26:50.291Z,20.4
2019-01-26T20:28:49.646Z,21.2
2019-01-26T20:30:49.939Z,21.2
2019-01-26T20:32:50.049Z,21.4
2019-01-26T20:34:49.690Z,21.5
2019-01-26T20:36:50.164Z,21.5
2019-01-26T20:38:49.689Z,20.0
2019-01-26T20:40:49.839Z,20.0
2019-01-26T20:42:49.875Z,19.9
2019-01-26T20:44:50.129Z,19.8
2019-01-26T20:46:49.620Z,20.1
2019-01-26T20:48:49.726Z,18.8
2019-01-26T20:50:49.879Z,18.8
2019-01-26T20:52:49.901Z,19.1
2019-01-26T20:54:50.088Z,19.0
2019-01-26T20:56:50.375Z,18.2
2019-01-26T20:58:50.527Z,18.2
2019-01-26T21:00:49.595Z,17.9
2019-01-26T21:02:49.663Z,17.4
2019-01-26T21:04:50.169Z,18.8
2019-01-26T21:06:50.475Z,18.8
2019-01-26T21:08:49.570Z,18.3
2019-01-26T21:10:49.643Z,17.7
2019-01-26T21:12:49.823Z,18.6
2019-01-26T21:14:50.011Z,17.7
2019-01-26T21:16:50.322Z,17.2
2019-01-26T21:18:50.461Z,17.2
2019-01-26T21:20:50.490Z,17.3
2019-01-26T21:22:50.482Z,18.0
2019-01-26T21:24:49.559Z,18.0
2019-01-26T21:26:49.916Z,17.5
2019-01-26T21:28:49.944Z,16.7
2019-01-26T21:30:49.938Z,15.6
2019-01-26T21:32:50.022Z,17.0
2019-01-26T21:34:49.557Z,15.4
2019-01-26T21:36:49.779Z,14.6
2019-01-26T21:38:49.885Z,14.6
2019-01-26T21:40:49.985Z,14.1
2019-01-26T21:42:50.076Z,13.1
2019-01-26T21:44:50.094Z,13.1
2019-01-26T21:46:50.367Z,13.6
2019-01-26T21:48:49.522Z,13.3
2019-01-26T21:50:49.717Z,12.8
2019-01-26T21:52:49.805Z,13.1
2019-01-26T21:54:49.857Z,12.6
2019-01-26T21:56:50.202Z,12.6
2019-01-26T21:58:50.290Z,12.4
2019-01-26T22:00:50.427Z,12.6
2019-01-26T22:02:49.637Z,16.1
2019-01-26T22:04:50.175Z,11.8
2019-01-26T22:06:49.614Z,11.8
2019-01-26T22:08:49.891Z,11.5
2019-01-26T22:10:50.183Z,10.8
2019-01-26T22:12:50.312Z,11.8
2019-01-26T22:14:50.435Z,11.7
2019-01-26T22:16:49.739Z,11.7
2019-01-26T22:18:49.916Z,12.3
2019-01-26T22:20:50.009Z,12.3
2019-01-26T22:22:50.177Z,11.9
2019-01-26T22:24:50.281Z,11.8
2019-01-26T22:26:49.739Z,11.8
2019-01-26T22:28:49.824Z,11.3
2019-01-26T22:30:49.807Z,11.1
2019-01-26T22:32:49.874Z,10.9
2019-01-26T22:34:50.321Z,10.9
2019-01-26T22:36:49.594Z,11.8
2019-01-26T22:38:49.675Z,11.0
2019-01-26T22:40:49.808Z,11.4
2019-01-26T22:42:49.931Z,11.4
2019-01-26T22:44:50.007Z,11.4
2019-01-26T22:46:50.239Z,11.0
2019-01-26T22:48:50.327Z,10.8
2019-01-26T22:50:50.331Z,10.5
2019-01-26T22:52:50.357Z,10.0
2019-01-26T22:54:50.439Z,10.0
2019-01-26T22:56:49.770Z,10.7
2019-01-26T22:58:49.789Z,9.6
2019-01-26T23:00:50.003Z,8.8
2019-01-26T23:02:50.517Z,8.8
2019-01-26T23:04:50.164Z,9.4
2019-01-26T23:06:50.461Z,9.3
2019-01-26T23:08:49.555Z,8.6
2019-01-26T23:10:49.673Z,9.0
2019-01-26T23:12:49.735Z,9.0
2019-01-26T23:14:49.849Z,9.0
2019-01-26T23:16:50.264Z,9.4
2019-01-26T23:18:50.400Z,9.6
2019-01-26T23:20:49.908Z,10.4
2019-01-26T23:22:49.940Z,10.4
2019-01-26T23:24:49.525Z,10.5
2019-01-26T23:26:49.790Z,10.7
2019-01-26T23:28:49.947Z,10.7
2019-01-26T23:30:49.999Z,12.3
2019-01-26T23:32:49.866Z,12.3
2019-01-26T23:34:50.147Z,12.7
2019-01-26T23:36:50.346Z,13.2
2019-01-26T23:38:50.384Z,13.4
2019-01-26T23:40:50.498Z,13.4
2019-01-26T23:42:49.667Z,13.4
2019-01-26T23:44:49.892Z,13.4
2019-01-26T23:46:50.239Z,13.8
2019-01-26T23:48:50.287Z,14.0
2019-01-26T23:50:50.371Z,14.4
2019-01-26T23:52:49.542Z,14.4
2019-01-26T23:54:49.657Z,14.5
2019-01-26T23:56:49.957Z,15.2
2019-01-26T23:58:50.038Z,15.0
